Time;durP1;ratioP1;P1;durP2;ratioP2;P2;SDS_P1;SDS_P2;PMS_P1;PMS_P2;Temp;Humidity;BMP_temperature;BMP_pressure;BME280_temperature;BME280_humidity;BME280_pressure;Samples;Min_cycle;Max_cycle;Signal;HPM_P1;HPM_P2
2022/07/09 00:00:11;;;;;;;7.47;2.50;;;;;;;16.49;62.20;100647.78;342387;28;1190;-77
2022/07/09 00:00:23;;;;;;;8.55;2.53;;;;;;;16.47;62.42;100650.47;342029;28;1546;-77
2022/07/09 00:00:35;;;;;;;6.32;2.50;;;;;;;16.50;62.39;100649.47;341390;28;1964;-77
2022/07/09 00:00:47;;;;;;;5.35;2.40;;;;;;;16.50;62.20;100644.22;342277;28;1055;-77
2022/07/09 00:01:00;;;;;;;5.35;2.42;;;;;;;16.50;61.99;100645.09;341739;28;1223;-77
2022/07/09 00:01:12;;;;;;;5.95;2.50;;;;;;;16.53;61.80;100638.84;340710;29;1122;-77
2022/07/09 00:01:24;;;;;;;5.25;2.40;;;;;;;16.54;62.06;100646.69;340510;28;2257;-77
2022/07/09 00:01:36;;;;;;;4.65;2.30;;;;;;;16.54;62.21;100646.69;342046;28;1575;-77
2022/07/09 00:01:48;;;;;;;4.82;2.50;;;;;;;16.55;62.34;100642.28;342306;28;1100;-77
2022/07/09 00:02:00;;;;;;;5.70;2.50;;;;;;;16.54;62.51;100645.81;342249;28;1205;-76
2022/07/09 00:02:12;;;;;;;6.07;2.40;;;;;;;16.54;62.49;100645.81;342220;28;1190;-76
2022/07/09 00:02:25;;;;;;;5.80;2.30;;;;;;;16.56;62.30;100651.88;341631;28;1492;-76
2022/07/09 00:02:37;;;;;;;5.13;2.42;;;;;;;16.56;62.09;100644.00;342347;28;1462;-76
2022/07/09 00:02:50;;;;;;;4.55;2.42;;;;;;;16.57;62.09;100648.31;342522;28;1823;-76
2022/07/09 00:03:02;;;;;;;3.97;2.30;;;;;;;16.58;61.80;100647.41;341376;28;1213;-76
2022/07/09 00:03:14;;;;;;;3.17;2.03;;;;;;;16.61;61.62;100644.63;339532;29;1054;-76
2022/07/09 00:03:26;;;;;;;2.72;2.00;;;;;;;16.63;61.44;100645.44;339550;29;2133;-76
2022/07/09 00:03:39;;;;;;;2.45;2.03;;;;;;;16.63;61.37;100650.69;340323;29;1762;-76
2022/07/09 00:03:52;;;;;;;2.95;2.20;;;;;;;16.64;61.23;100646.28;342343;28;1188;-76
2022/07/09 00:04:04;;;;;;;4.20;2.30;;;;;;;16.65;61.36;100645.38;342285;28;1509;-76
2022/07/09 00:04:16;;;;;;;4.18;2.22;;;;;;;16.63;61.38;100645.44;342063;28;1080;-76
2022/07/09 00:04:27;;;;;;;3.67;2.28;;;;;;;16.64;61.23;100647.16;340285;28;2252;-76
2022/07/09 00:04:39;;;;;;;4.00;2.22;;;;;;;16.65;61.26;100643.59;340231;29;1754;-76
2022/07/09 00:04:51;;;;;;;3.97;2.22;;;;;;;16.65;61.16;100654.09;340900;28;1064;-76
2022/07/09 00:05:04;;;;;;;4.40;2.20;;;;;;;16.64;61.21;100641.91;341338;28;1342;-76
2022/07/09 00:05:18;;;;;;;4.45;2.08;;;;;;;16.64;61.09;100641.91;342089;28;1068;-76
2022/07/09 00:05:30;;;;;;;3.83;2.20;;;;;;;16.64;61.00;100646.28;341502;28;2208;-76
2022/07/09 00:05:42;;;;;;;3.78;2.28;;;;;;;16.65;61.17;100653.25;342062;28;1835;-76
2022/07/09 00:05:54;;;;;;;3.10;2.08;;;;;;;16.63;61.23;100645.44;342222;28;1177;-76
2022/07/09 00:06:06;;;;;;;2.95;1.90;;;;;;;16.64;61.02;100643.66;341443;29;733;-76
2022/07/09 00:06:19;;;;;;;2.75;1.98;;;;;;;16.63;60.69;100634.94;340979;28;1266;-76
2022/07/09 00:06:31;;;;;;;3.55;2.10;;;;;;;16.63;60.81;100644.59;341813;28;2188;-77
2022/07/09 00:06:43;;;;;;;4.20;2.10;;;;;;;16.62;60.88;100643.75;342240;28;1738;-77
2022/07/09 00:06:55;;;;;;;4.25;1.92;;;;;;;16.62;60.94;100642.84;342381;28;1327;-77
2022/07/09 00:07:07;;;;;;;5.25;2.13;;;;;;;16.62;60.89;100641.13;342631;28;2167;-77
2022/07/09 00:07:19;;;;;;;4.35;2.15;;;;;;;16.64;60.85;100646.28;342447;28;1874;-77
2022/07/09 00:07:31;;;;;;;4.60;2.30;;;;;;;16.64;60.85;100648.91;343574;28;1144;-77
2022/07/09 00:07:43;;;;;;;4.22;2.40;;;;;;;16.64;61.09;100655.03;343641;28;1618;-77
2022/07/09 00:07:55;;;;;;;4.50;2.42;;;;;;;16.59;61.30;100649.09;342502;28;2195;-76
2022/07/09 00:08:07;;;;;;;5.65;2.40;;;;;;;16.59;61.78;100646.47;342238;28;1019;-76
2022/07/09 00:08:19;;;;;;;6.25;2.42;;;;;;;16.59;61.44;100643.84;342216;28;2158;-77
2022/07/09 00:08:31;;;;;;;5.25;2.28;;;;;;;16.58;60.98;100648.25;342511;28;1512;-77
2022/07/09 00:08:44;;;;;;;4.65;2.20;;;;;;;16.60;60.97;100645.56;342411;28;1776;-77
2022/07/09 00:08:56;;;;;;;4.38;2.17;;;;;;;16.59;61.16;100643.84;342158;28;1197;-77
2022/07/09 00:09:08;;;;;;;3.63;2.03;;;;;;;16.60;61.26;100650.81;342165;28;1091;-77
2022/07/09 00:09:20;;;;;;;4.13;2.20;;;;;;;16.60;61.28;100640.31;342288;28;1271;-77
2022/07/09 00:09:32;;;;;;;4.38;2.17;;;;;;;16.60;61.29;100645.56;341433;28;2077;-77
2022/07/09 00:09:44;;;;;;;4.25;2.10;;;;;;;16.58;61.16;100643.00;342024;28;1876;-77
2022/07/09 00:09:56;;;;;;;3.88;2.08;;;;;;;16.58;61.13;100643.00;342172;28;1214;-77
2022/07/09 00:10:08;;;;;;;4.10;2.13;;;;;;;16.60;61.24;100645.56;342163;28;1761;-77
2022/07/09 00:10:20;;;;;;;5.32;2.30;;;;;;;16.61;61.23;100641.16;342034;28;1161;-77
2022/07/09 00:10:33;;;;;;;3.95;2.22;;;;;;;16.62;61.29;100643.75;341222;28;2286;-77
2022/07/09 00:10:45;;;;;;;3.78;2.20;;;;;;;16.60;61.12;100645.56;342252;28;1943;-77
2022/07/09 00:10:57;;;;;;;3.95;2.17;;;;;;;16.61;61.06;100644.63;342856;28;1286;-77
2022/07/09 00:11:09;;;;;;;5.80;2.38;;;;;;;16.60;61.37;100640.31;341302;28;1203;-77
2022/07/09 00:11:21;;;;;;;4.80;2.30;;;;;;;16.61;61.35;100646.41;342621;28;1069;-77
2022/07/09 00:11:33;;;;;;;4.18;2.20;;;;;;;16.60;61.23;100645.56;341784;28;1463;-77
2022/07/09 00:11:45;;;;;;;4.43;2.38;;;;;;;16.60;61.38;100637.69;341606;28;1889;-77
2022/07/09 00:11:57;;;;;;;5.57;2.38;;;;;;;16.60;61.10;100635.06;341697;28;1303;-77
2022/07/09 00:12:09;;;;;;;6.60;2.35;;;;;;;16.61;61.19;100649.88;340979;29;1184;-77
2022/07/09 00:12:21;;;;;;;5.90;2.30;;;;;;;16.62;61.28;100637.63;341001;29;1166;-77
2022/07/09 00:12:33;;;;;;;5.28;2.40;;;;;;;16.60;61.31;100635.06;340379;28;1668;-77
2022/07/09 00:12:45;;;;;;;3.78;2.45;;;;;;;16.57;61.65;100636.03;342378;28;1079;-77
2022/07/09 00:12:57;;;;;;;4.82;2.67;;;;;;;16.52;62.00;100642.38;341107;28;1242;-77
2022/07/09 00:13:09;;;;;;;4.90;2.58;;;;;;;16.61;61.91;100642.00;342200;28;1020;-77
2022/07/09 00:13:21;;;;;;;6.00;2.53;;;;;;;16.63;61.72;100644.59;342308;28;1196;-77
2022/07/09 00:13:33;;;;;;;5.38;2.58;;;;;;;16.63;61.78;100645.44;341717;28;1377;-77
2022/07/09 00:13:46;;;;;;;4.50;2.55;;;;;;;16.61;61.47;100642.00;342511;28;1082;-77
2022/07/09 00:13:57;;;;;;;4.85;2.53;;;;;;;16.60;61.35;100640.31;343137;28;1740;-77
2022/07/09 00:14:09;;;;;;;4.78;2.50;;;;;;;16.59;61.50;100646.47;342485;28;1083;-76
2022/07/09 00:14:21;;;;;;;6.05;2.60;;;;;;;16.55;61.22;100637.88;342027;28;1976;-76
2022/07/09 00:14:34;;;;;;;6.20;2.70;;;;;;;16.54;61.37;100645.81;342097;28;1433;-76
2022/07/09 00:14:46;;;;;;;6.53;2.78;;;;;;;16.55;61.26;100639.66;342482;28;1275;-76
2022/07/09 00:14:58;;;;;;;4.45;2.55;;;;;;;16.57;60.98;100640.44;343095;28;1278;-76
2022/07/09 00:15:10;;;;;;;4.55;2.58;;;;;;;16.55;61.17;100637.03;342421;28;1092;-76
2022/07/09 00:15:24;;;;;;;4.80;2.63;;;;;;;16.55;61.11;100643.13;342473;28;2350;-76
2022/07/09 00:15:36;;;;;;;5.90;2.58;;;;;;;16.56;61.25;100638.75;342499;28;1956;-76
2022/07/09 00:15:49;;;;;;;5.15;2.50;;;;;;;16.59;61.46;100641.22;342428;28;1031;-76
2022/07/09 00:16:02;;;;;;;3.88;2.38;;;;;;;16.60;61.42;100637.69;342476;28;1228;-77
2022/07/09 00:16:14;;;;;;;3.75;2.42;;;;;;;16.60;61.75;100645.56;340885;28;1020;-77
2022/07/09 00:16:26;;;;;;;4.07;2.50;;;;;;;16.61;62.12;100635.91;341322;28;1766;-77
2022/07/09 00:16:38;;;;;;;4.63;2.60;;;;;;;16.60;62.29;100640.31;340918;28;1158;-77
2022/07/09 00:16:50;;;;;;;4.90;2.70;;;;;;;16.63;62.08;100636.72;341881;28;1143;-77
2022/07/09 00:17:02;;;;;;;4.78;2.60;;;;;;;16.62;62.72;100638.50;342354;28;1601;-77
2022/07/09 00:17:14;;;;;;;5.47;2.50;;;;;;;16.65;62.19;100643.59;342409;28;1113;-77
2022/07/09 00:17:26;;;;;;;6.32;2.40;;;;;;;16.67;61.70;100636.50;341743;28;2214;-77
2022/07/09 00:17:38;;;;;;;5.57;2.38;;;;;;;16.69;61.59;100641.69;341321;28;1320;-77
2022/07/09 00:17:51;;;;;;;4.75;2.45;;;;;;;16.71;61.43;100639.88;341478;28;2289;-77
2022/07/09 00:18:03;;;;;;;5.78;2.40;;;;;;;16.70;61.85;100636.41;341784;28;1848;-77
2022/07/09 00:18:16;;;;;;;5.88;2.30;;;;;;;16.71;61.78;100642.50;340812;29;1177;-77
2022/07/09 00:18:28;;;;;;;4.35;2.13;;;;;;;16.72;61.61;100650.31;339793;29;2059;-76
2022/07/09 00:18:41;;;;;;;4.53;2.22;;;;;;;16.71;61.17;100643.34;340968;29;1486;-76
2022/07/09 00:18:53;;;;;;;5.47;2.50;;;;;;;16.72;61.10;100645.06;340916;29;1070;-76
2022/07/09 00:19:05;;;;;;;5.30;2.58;;;;;;;16.73;61.13;100641.50;340947;29;1964;-76
2022/07/09 00:19:17;;;;;;;4.68;2.60;;;;;;;16.71;61.75;100632.84;340565;28;1767;-76
2022/07/09 00:19:29;;;;;;;4.68;2.50;;;;;;;16.72;61.61;100639.81;339913;29;1831;-76
2022/07/09 00:19:41;;;;;;;5.30;2.58;;;;;;;16.71;61.87;100643.34;340969;29;1959;-76
2022/07/09 00:19:53;;;;;;;5.43;2.60;;;;;;;16.72;61.59;100642.44;341001;29;1008;-76
2022/07/09 00:20:05;;;;;;;4.90;2.65;;;;;;;16.73;61.49;100644.13;339875;29;1666;-76
2022/07/09 00:20:17;;;;;;;4.28;2.60;;;;;;;16.71;62.29;100638.09;340874;29;1028;-76
2022/07/09 00:20:30;;;;;;;4.55;2.63;;;;;;;16.69;62.19;100639.91;341269;28;2005;-76
2022/07/09 00:20:41;;;;;;;5.47;2.67;;;;;;;16.69;62.42;100634.66;342337;28;1713;-76
2022/07/09 00:20:56;;;;;;;5.55;2.65;;;;;;;16.67;62.33;100636.50;342124;28;1067;-76
2022/07/09 00:21:08;;;;;;;6.05;2.70;;;;;;;16.67;62.44;100636.50;341024;29;1078;-76
2022/07/09 00:21:20;;;;;;;6.07;2.63;;;;;;;16.67;62.63;100641.75;342238;28;1303;-76
2022/07/09 00:21:32;;;;;;;5.28;2.50;;;;;;;16.69;62.83;100639.06;340066;29;2372;-76
2022/07/09 00:21:44;;;;;;;5.43;2.70;;;;;;;16.67;62.48;100647.00;340981;28;1905;-76
2022/07/09 00:21:56;;;;;;;4.47;2.60;;;;;;;16.66;62.34;100639.19;340608;29;1355;-76
2022/07/09 00:22:08;;;;;;;4.93;2.60;;;;;;;16.65;62.44;100643.59;340787;29;1027;-76
2022/07/09 00:22:20;;;;;;;4.78;2.42;;;;;;;16.65;62.47;100640.13;340175;29;1873;-77
2022/07/09 00:22:32;;;;;;;4.55;2.40;;;;;;;16.63;62.10;100640.19;340393;28;1818;-77
2022/07/09 00:22:44;;;;;;;3.58;2.28;;;;;;;16.63;61.86;100637.56;340737;29;1062;-77
2022/07/09 00:22:56;;;;;;;3.50;2.30;;;;;;;16.62;61.96;100641.13;340164;28;1074;-77
2022/07/09 00:23:08;;;;;;;4.35;2.40;;;;;;;16.63;62.08;100640.19;340836;28;1030;-77
2022/07/09 00:23:20;;;;;;;4.93;2.40;;;;;;;16.66;61.71;100639.19;342039;28;1048;-77
2022/07/09 00:23:33;;;;;;;5.20;2.40;;;;;;;16.65;61.68;100643.59;341154;28;2097;-77
2022/07/09 00:23:45;;;;;;;5.80;2.60;;;;;;;16.66;61.65;100640.06;343344;28;2027;-76
2022/07/09 00:23:57;;;;;;;5.88;2.72;;;;;;;16.60;61.32;100635.06;342996;28;1450;-76
2022/07/09 00:24:09;;;;;;;5.65;2.60;;;;;;;16.60;61.24;100639.44;343520;28;1795;-76
2022/07/09 00:24:21;;;;;;;6.10;2.60;;;;;;;16.59;61.19;100638.59;343489;28;1276;-77
2022/07/09 00:24:33;;;;;;;6.32;2.60;;;;;;;16.58;61.16;100639.53;342597;28;2039;-77
2022/07/09 00:24:45;;;;;;;5.65;2.55;;;;;;;16.60;61.18;100632.44;343269;28;1661;-77
2022/07/09 00:24:57;;;;;;;4.10;2.50;;;;;;;16.60;61.36;100635.06;343233;28;1109;-76
2022/07/09 00:25:09;;;;;;;4.15;2.50;;;;;;;16.60;61.37;100635.06;343448;28;1091;-76
2022/07/09 00:25:21;;;;;;;4.82;2.50;;;;;;;16.57;61.66;100629.94;343510;28;1096;-76
2022/07/09 00:25:33;;;;;;;5.00;2.50;;;;;;;16.59;61.77;100633.34;342810;28;1894;-76
2022/07/09 00:25:45;;;;;;;5.32;2.63;;;;;;;16.57;62.10;100632.56;343371;28;1539;-76
2022/07/09 00:25:57;;;;;;;4.28;2.60;;;;;;;16.57;62.43;100636.03;343185;28;1251;-76
2022/07/09 00:26:09;;;;;;;4.72;2.65;;;;;;;16.58;62.03;100639.53;343446;28;1906;-76
2022/07/09 00:26:22;;;;;;;4.25;2.50;;;;;;;16.60;62.03;100634.19;342725;28;2000;-76
2022/07/09 00:26:34;;;;;;;4.00;2.38;;;;;;;16.58;62.06;100636.91;343581;28;1483;-76
2022/07/09 00:26:45;;;;;;;4.82;2.60;;;;;;;16.58;62.11;100629.88;343466;28;1149;-76
2022/07/09 00:26:57;;;;;;;5.63;2.70;;;;;;;16.58;62.22;100634.28;343379;28;1280;-76
2022/07/09 00:27:09;;;;;;;5.55;2.60;;;;;;;16.59;62.86;100635.97;343287;28;1076;-77
2022/07/09 00:27:21;;;;;;;6.28;2.55;;;;;;;16.60;62.85;100634.19;343138;28;1671;-77
2022/07/09 00:27:33;;;;;;;6.85;2.53;;;;;;;16.60;62.78;100635.06;342082;28;1655;-77
2022/07/09 00:27:46;;;;;;;6.03;2.50;;;;;;;16.60;62.98;100634.19;342585;28;1302;-76
2022/07/09 00:27:58;;;;;;;5.40;2.45;;;;;;;16.58;62.65;100629.88;341967;28;1201;-76
2022/07/09 00:28:09;;;;;;;5.80;2.50;;;;;;;16.58;62.70;100636.91;342172;28;1030;-76
2022/07/09 00:28:21;;;;;;;5.60;2.72;;;;;;;16.57;62.66;100635.19;340629;29;1045;-76
2022/07/09 00:28:33;;;;;;;4.82;2.80;;;;;;;16.57;62.34;100638.66;340091;29;1429;-76
2022/07/09 00:28:46;;;;;;;3.53;2.58;;;;;;;16.57;62.41;100635.19;340836;29;1927;-76
2022/07/09 00:28:58;;;;;;;5.00;2.63;;;;;;;16.57;62.53;100636.03;341008;29;1229;-76
2022/07/09 00:29:10;;;;;;;6.32;2.65;;;;;;;16.55;62.67;100631.78;340920;29;1213;-76
2022/07/09 00:29:22;;;;;;;6.38;2.65;;;;;;;16.53;62.86;100630.97;339670;29;1220;-76
2022/07/09 00:29:34;;;;;;;5.05;2.58;;;;;;;16.52;63.11;100632.75;339030;29;1407;-76
2022/07/09 00:29:46;;;;;;;3.75;2.53;;;;;;;16.52;62.84;100634.50;339669;28;1849;-76
2022/07/09 00:29:58;;;;;;;4.70;2.70;;;;;;;16.52;62.71;100632.75;341970;28;1178;-76
2022/07/09 00:30:10;;;;;;;4.80;2.70;;;;;;;16.53;62.61;100636.22;342300;28;1067;-76
2022/07/09 00:30:22;;;;;;;3.92;2.60;;;;;;;16.53;62.38;100628.34;342197;28;1024;-76
2022/07/09 00:30:34;;;;;;;6.38;2.72;;;;;;;16.55;62.27;100631.78;341912;28;1433;-76
2022/07/09 00:30:46;;;;;;;6.50;2.70;;;;;;;16.54;62.26;100635.31;342198;28;1911;-76
2022/07/09 00:30:58;;;;;;;5.18;2.63;;;;;;;16.54;62.08;100630.06;341622;28;1106;-76
2022/07/09 00:31:10;;;;;;;4.53;2.60;;;;;;;16.54;62.09;100630.06;342916;28;1029;-76
2022/07/09 00:31:22;;;;;;;6.45;2.42;;;;;;;16.57;61.90;100635.19;343365;28;1126;-76
2022/07/09 00:31:34;;;;;;;6.82;2.35;;;;;;;16.54;62.58;100633.56;341506;28;1620;-76
2022/07/09 00:31:47;;;;;;;6.55;2.45;;;;;;;16.56;62.27;100633.50;342345;28;1055;-76
2022/07/09 00:31:59;;;;;;;6.07;2.75;;;;;;;16.55;62.64;100632.63;342423;28;1245;-77
2022/07/09 00:32:11;;;;;;;5.05;2.70;;;;;;;16.56;62.50;100633.50;342418;28;1085;-77
2022/07/09 00:32:23;;;;;;;5.03;2.55;;;;;;;16.56;62.09;100639.59;342648;28;1166;-77
2022/07/09 00:32:35;;;;;;;5.32;2.60;;;;;;;16.59;61.99;100633.34;341258;28;1610;-77
2022/07/09 00:32:47;;;;;;;4.65;2.60;;;;;;;16.61;61.84;100630.66;342031;28;1079;-77
2022/07/09 00:32:59;;;;;;;5.45;2.50;;;;;;;16.62;61.62;100633.25;341516;28;1429;-77
2022/07/09 00:33:11;;;;;;;4.60;2.40;;;;;;;16.61;61.15;100630.66;342213;28;1638;-77
2022/07/09 00:33:23;;;;;;;4.22;2.30;;;;;;;16.62;60.99;100633.25;342377;28;1067;-77
2022/07/09 00:33:35;;;;;;;4.25;2.30;;;;;;;16.62;61.03;100628.00;341759;28;1413;-77
2022/07/09 00:33:47;;;;;;;4.78;2.33;;;;;;;16.62;60.70;100633.25;342225;28;1087;-77
2022/07/09 00:33:59;;;;;;;4.22;2.38;;;;;;;16.57;61.07;100632.56;342157;28;1071;-77
2022/07/09 00:34:11;;;;;;;3.88;2.42;;;;;;;16.55;61.26;100631.78;342405;28;1188;-77
2022/07/09 00:34:23;;;;;;;4.60;2.55;;;;;;;16.55;61.42;100631.78;342258;28;1241;-77
2022/07/09 00:34:35;;;;;;;4.85;2.58;;;;;;;16.53;61.85;100633.59;342139;28;1471;-77
2022/07/09 00:34:47;;;;;;;5.75;2.50;;;;;;;16.52;61.86;100627.50;341548;28;1206;-77
2022/07/09 00:34:59;;;;;;;6.05;2.55;;;;;;;16.49;62.04;100637.28;343565;28;1195;-77
2022/07/09 00:35:11;;;;;;;5.78;2.47;;;;;;;16.50;61.98;100628.47;343819;28;1043;-77
2022/07/09 00:35:23;;;;;;;4.35;2.40;;;;;;;16.49;62.07;100627.63;343720;28;1214;-77
2022/07/09 00:35:35;;;;;;;4.80;2.50;;;;;;;16.51;61.60;100622.31;340879;28;1050;-77
2022/07/09 00:35:47;;;;;;;4.60;2.60;;;;;;;16.49;62.40;100626.78;341872;28;2114;-76
2022/07/09 00:35:59;;;;;;;4.72;2.60;;;;;;;16.50;62.68;100628.47;342266;28;1267;-76
2022/07/09 00:36:11;;;;;;;4.93;2.58;;;;;;;16.48;62.69;100625.06;342714;28;1046;-76
2022/07/09 00:36:23;;;;;;;4.47;2.45;;;;;;;16.47;62.57;100626.84;342647;28;1063;-76
2022/07/09 00:36:35;;;;;;;4.47;2.50;;;;;;;16.47;62.24;100626.00;342342;28;1488;-76
2022/07/09 00:36:47;;;;;;;3.90;2.58;;;;;;;16.55;62.07;100626.53;341421;28;1039;-76
2022/07/09 00:36:59;;;;;;;3.92;2.63;;;;;;;16.57;61.65;100624.69;343181;28;1180;-76
2022/07/09 00:37:11;;;;;;;4.28;2.60;;;;;;;16.60;61.72;100624.56;342195;28;1184;-76
2022/07/09 00:37:23;;;;;;;3.85;2.60;;;;;;;16.61;61.63;100625.41;342207;28;1828;-76
2022/07/09 00:37:35;;;;;;;3.63;2.50;;;;;;;16.62;61.72;100624.47;341535;28;1143;-76
2022/07/09 00:37:47;;;;;;;3.50;2.42;;;;;;;16.64;61.60;100625.28;342448;28;1055;-76
2022/07/09 00:37:59;;;;;;;3.95;2.70;;;;;;;16.65;61.55;100627.00;342654;28;1274;-76
2022/07/09 00:38:11;;;;;;;4.60;2.63;;;;;;;16.67;61.48;100620.75;342146;28;2045;-76
2022/07/09 00:38:23;;;;;;;4.57;2.38;;;;;;;16.70;61.36;100630.25;342251;28;1044;-76
2022/07/09 00:38:35;;;;;;;5.15;2.20;;;;;;;16.61;61.79;100625.41;341913;28;1532;-76
2022/07/09 00:38:48;;;;;;;4.78;2.40;;;;;;;16.56;61.98;100623.84;340225;28;1193;-76
2022/07/09 00:39:00;;;;;;;5.13;2.60;;;;;;;16.57;61.93;100625.53;341949;28;1015;-76
2022/07/09 00:39:12;;;;;;;5.00;2.58;;;;;;;16.57;61.75;100624.69;341366;28;1140;-76
2022/07/09 00:39:24;;;;;;;4.70;2.45;;;;;;;16.58;61.72;100626.41;341614;28;2219;-76
2022/07/09 00:39:36;;;;;;;3.83;2.33;;;;;;;16.58;61.49;100626.41;341793;28;1707;-76
2022/07/09 00:39:48;;;;;;;3.60;2.20;;;;;;;16.59;61.36;100622.84;341180;28;1062;-76
2022/07/09 00:40:00;;;;;;;5.53;2.22;;;;;;;16.60;61.39;100624.56;342172;28;1236;-76
2022/07/09 00:40:12;;;;;;;5.97;2.35;;;;;;;16.58;61.63;100623.78;342270;28;1132;-76
2022/07/09 00:40:24;;;;;;;5.40;2.40;;;;;;;16.54;61.77;100625.69;340725;29;1068;-76
2022/07/09 00:40:36;;;;;;;3.80;2.30;;;;;;;16.52;61.84;100626.63;340612;28;1371;-76
2022/07/09 00:40:48;;;;;;;4.72;2.40;;;;;;;16.51;61.88;100624.94;340015;28;1631;-76
2022/07/09 00:41:01;;;;;;;6.07;2.50;;;;;;;16.52;61.44;100627.50;340908;28;2117;-76
2022/07/09 00:41:13;;;;;;;6.85;2.40;;;;;;;16.53;61.25;100623.97;340911;28;1842;-77
2022/07/09 00:41:25;;;;;;;5.28;2.20;;;;;;;16.55;61.10;100621.28;340808;28;1872;-77
2022/07/09 00:41:37;;;;;;;4.22;2.42;;;;;;;16.53;61.06;100623.09;340858;28;1709;-77
2022/07/09 00:41:49;;;;;;;3.95;2.42;;;;;;;16.53;61.42;100623.09;342037;28;1804;-78
2022/07/09 00:42:09;;;;;;;3.85;2.58;;;;;;;16.49;61.08;100621.53;340830;29;1192;-78
2022/07/09 00:42:21;;;;;;;4.82;2.53;;;;;;;16.48;60.77;100630.31;340167;28;2415;-77
2022/07/09 00:42:33;;;;;;;4.68;2.42;;;;;;;16.48;60.66;100618.06;342204;28;1222;-78
2022/07/09 00:42:45;;;;;;;4.25;2.40;;;;;;;16.48;60.93;100614.56;340983;28;2242;-77
2022/07/09 00:42:57;;;;;;;4.47;2.60;;;;;;;16.46;60.90;100622.53;342207;28;1039;-75
2022/07/09 00:43:19;;;;;;;4.53;2.55;;;;;;;16.46;61.09;100619.03;341986;28;1103;-79
2022/07/09 00:43:31;;;;;;;4.30;2.50;;;;;;;16.46;61.04;100626.91;340939;29;1060;-76
2022/07/09 00:43:50;;;;;;;3.42;2.35;;;;;;;16.45;60.95;100622.56;340939;29;1201;-76
2022/07/09 00:44:02;;;;;;;3.47;2.28;;;;;;;16.43;61.40;100622.63;341348;28;1369;-77
2022/07/09 00:44:14;;;;;;;4.18;2.47;;;;;;;16.40;61.06;100621.91;342363;28;1035;-77
2022/07/09 00:44:26;;;;;;;4.40;2.55;;;;;;;16.38;61.10;100619.38;341565;28;2200;-77
2022/07/09 00:44:38;;;;;;;5.45;2.67;;;;;;;16.38;61.92;100619.38;341759;28;1506;-77
2022/07/09 00:44:51;;;;;;;6.80;2.60;;;;;;;16.36;61.83;100622.03;342282;28;1813;-77
2022/07/09 00:45:03;;;;;;;5.93;2.58;;;;;;;16.40;61.79;100624.53;342309;28;1594;-77
2022/07/09 00:45:17;;;;;;;4.03;2.50;;;;;;;16.41;61.56;100628.88;342456;28;1657;-77
2022/07/09 00:45:29;;;;;;;3.83;2.50;;;;;;;16.40;61.60;100619.28;342277;28;1048;-77
2022/07/09 00:45:41;;;;;;;4.50;2.55;;;;;;;16.42;61.61;100627.94;342247;28;1035;-77
2022/07/09 00:45:53;;;;;;;4.88;2.58;;;;;;;16.40;61.70;100619.28;342178;28;1059;-77
2022/07/09 00:46:05;;;;;;;5.43;2.45;;;;;;;16.32;60.90;100620.47;341020;28;1452;-77
2022/07/09 00:46:17;;;;;;;6.15;2.50;;;;;;;16.35;61.10;100622.94;340967;29;1111;-77
2022/07/09 00:46:29;;;;;;;5.40;2.40;;;;;;;16.38;61.41;100625.47;340724;28;1472;-77
2022/07/09 00:46:41;;;;;;;3.42;2.28;;;;;;;16.38;61.73;100620.22;341742;28;2092;-77
2022/07/09 00:46:53;;;;;;;3.83;2.40;;;;;;;16.42;61.48;100620.06;341178;28;1606;-77
2022/07/09 00:47:07;;;;;;;4.07;2.40;;;;;;;16.43;61.57;100621.78;341977;28;1187;-77
2022/07/09 00:47:19;;;;;;;4.25;2.30;;;;;;;16.42;61.14;100631.44;341361;28;1786;-77
2022/07/09 00:47:31;;;;;;;5.18;2.22;;;;;;;16.42;60.64;100625.31;342193;28;1083;-77
2022/07/09 00:47:43;;;;;;;4.70;2.20;;;;;;;16.42;60.76;100620.06;342176;28;1095;-77
2022/07/09 00:47:55;;;;;;;4.07;2.10;;;;;;;16.40;60.56;100625.41;342095;28;1137;-77
2022/07/09 00:48:07;;;;;;;3.47;2.15;;;;;;;16.39;60.46;100615.81;340873;28;1781;-77
2022/07/09 00:48:19;;;;;;;4.07;2.33;;;;;;;16.39;60.65;100615.81;341280;28;1072;-77
2022/07/09 00:48:31;;;;;;;5.82;2.30;;;;;;;16.35;60.54;100620.31;342308;28;1228;-78
2022/07/09 00:48:44;;;;;;;5.60;2.00;;;;;;;16.35;60.58;100620.31;340654;28;1941;-77
2022/07/09 00:48:56;;;;;;;6.40;2.00;;;;;;;16.35;60.47;100615.06;341185;28;1985;-77
2022/07/09 00:49:08;;;;;;;4.82;2.20;;;;;;;16.33;60.47;100616.91;341963;28;1811;-77
2022/07/09 00:49:20;;;;;;;4.20;2.30;;;;;;;16.34;60.30;100616.00;342107;28;1195;-77
2022/07/09 00:49:37;;;;;;;3.55;2.30;;;;;;;16.32;60.73;100620.47;342108;28;1202;-77
2022/07/09 00:49:50;;;;;;;3.92;2.38;;;;;;;16.32;60.49;100619.63;342127;28;1665;-77
2022/07/09 00:50:03;;;;;;;4.07;2.40;;;;;;;16.29;60.37;100615.31;341865;28;1946;-77
2022/07/09 00:50:15;;;;;;;3.83;2.25;;;;;;;16.27;60.60;100617.16;341239;28;1634;-77
2022/07/09 00:50:27;;;;;;;4.27;2.10;;;;;;;16.22;60.78;100618.25;341768;28;1881;-77
2022/07/09 00:50:41;;;;;;;5.28;2.38;;;;;;;16.18;60.75;100617.56;341232;28;1355;-77
2022/07/09 00:50:53;;;;;;;5.55;2.60;;;;;;;16.12;60.96;100612.56;341527;28;1698;-77
2022/07/09 00:51:07;;;;;;;4.43;2.60;;;;;;;16.13;61.32;100619.50;340964;28;1140;-77
2022/07/09 00:51:20;;;;;;;3.55;2.40;;;;;;;16.12;61.31;100617.81;341292;28;1164;-77
2022/07/09 00:51:32;;;;;;;3.40;2.28;;;;;;;16.11;61.02;100621.31;341031;28;1026;-77
2022/07/09 00:51:45;;;;;;;4.00;2.42;;;;;;;16.08;61.25;100621.47;341525;28;1567;-77
2022/07/09 00:51:58;;;;;;;5.35;2.60;;;;;;;16.06;61.20;100628.53;342103;28;1074;-77
2022/07/09 00:52:13;;;;;;;5.25;2.60;;;;;;;16.07;61.22;100625.84;341890;28;1292;-77
2022/07/09 00:52:25;;;;;;;5.50;2.42;;;;;;;16.06;61.26;100623.28;340917;28;960;-77
2022/07/09 00:52:38;;;;;;;4.38;2.38;;;;;;;16.04;61.21;100614.63;341047;28;2087;-77
2022/07/09 00:52:51;;;;;;;3.95;2.47;;;;;;;16.02;61.47;100624.31;342170;28;1123;-77
2022/07/09 00:53:03;;;;;;;4.38;2.70;;;;;;;16.03;61.25;100618.16;342244;28;1733;-77
2022/07/09 00:53:18;;;;;;;4.40;2.75;;;;;;;16.04;61.77;100620.72;342290;28;1281;-77
2022/07/09 00:53:30;;;;;;;4.90;2.55;;;;;;;16.01;61.95;100620.84;342319;28;1110;-77
2022/07/09 00:53:43;;;;;;;5.18;2.55;;;;;;;16.00;61.99;100623.50;342146;28;1120;-77
2022/07/09 00:53:56;;;;;;;4.63;2.63;;;;;;;15.97;61.62;100609.59;343152;28;1483;-77
2022/07/09 00:54:09;;;;;;;4.45;2.70;;;;;;;15.97;61.87;100620.09;343293;28;1120;-77
2022/07/09 00:54:22;;;;;;;4.47;2.63;;;;;;;15.97;61.83;100614.00;343236;28;1277;-77
2022/07/09 00:54:36;;;;;;;4.55;2.50;;;;;;;15.98;62.18;100618.34;343406;28;1214;-77
2022/07/09 00:54:48;;;;;;;4.53;2.50;;;;;;;16.02;61.99;100612.06;343346;28;1552;-77
2022/07/09 00:55:01;;;;;;;3.97;2.40;;;;;;;16.03;62.13;100612.91;343964;28;1504;-77
2022/07/09 00:55:13;;;;;;;4.38;2.42;;;;;;;16.06;61.91;100615.44;343426;28;1063;-77
2022/07/09 00:55:26;;;;;;;4.30;2.40;;;;;;;16.07;61.68;100609.25;343181;28;1501;-77
2022/07/09 00:55:38;;;;;;;3.67;2.22;;;;;;;16.08;61.59;100616.22;343265;28;1217;-77
2022/07/09 00:55:51;;;;;;;3.83;2.22;;;;;;;16.09;61.90;100617.91;343343;28;1119;-77
2022/07/09 00:56:04;;;;;;;4.22;2.30;;;;;;;16.07;61.88;100614.50;342048;28;1205;-77
2022/07/09 00:56:16;;;;;;;4.43;2.40;;;;;;;16.07;61.94;100619.75;343833;28;1371;-77
2022/07/09 00:56:30;;;;;;;4.22;2.35;;;;;;;16.02;61.67;100613.81;344587;28;1103;-77
2022/07/09 00:56:42;;;;;;;4.22;2.42;;;;;;;16.01;61.95;100625.22;344753;28;1192;-77
2022/07/09 00:56:54;;;;;;;4.32;2.60;;;;;;;16.02;62.20;100608.56;343154;28;2028;-77
2022/07/09 00:57:08;;;;;;;5.53;2.78;;;;;;;16.04;61.80;100622.50;342462;28;1543;-77
2022/07/09 00:57:22;;;;;;;7.18;2.80;;;;;;;16.04;61.76;100619.88;343351;28;1113;-77
2022/07/09 00:57:35;;;;;;;7.07;2.85;;;;;;;16.05;61.49;100611.09;341868;28;1071;-77
2022/07/09 00:57:47;;;;;;;5.88;2.80;;;;;;;16.05;61.45;100611.94;340747;29;1056;-77
2022/07/09 00:57:59;;;;;;;5.82;2.70;;;;;;;16.06;61.29;100615.44;340581;29;1226;-77
2022/07/09 00:58:15;;;;;;;6.00;2.63;;;;;;;16.07;61.28;100614.50;340849;29;1083;-77
2022/07/09 00:58:27;;;;;;;5.32;2.75;;;;;;;16.05;61.44;100613.69;340527;29;1585;-77
2022/07/09 00:58:43;;;;;;;5.95;2.80;;;;;;;16.04;61.41;100615.47;340858;29;1259;-77
2022/07/09 00:58:55;;;;;;;5.97;2.80;;;;;;;16.07;61.57;100617.13;340497;29;1539;-77